• Join FlightAware (Why Join?)
  • Login
  • US Flag GB Flag 
02:24 EST


 

Airport Tracker/Info


-or-


 

Live Flight TrackerFlight Track Log ✈ N825SD ✈ 13-Oct-2013 ✈ KART - KOQN

Flight Track Log - Related Links

Times and Time Zones

All times are in EDT time to prevent confusion due to time zone crossing. See the N825SD flight status page for this flight to view local times or setup timezone preferences in your user account.

Time Position Orientation Groundspeed Altitude Reporting Facility
EDT Latitude Longitude Course Direction KTS MPH feet Rate Location/Type
15:57 43.8786 -76.0783 196° South 163 188 4,100  Level Boston Center
15:58 43.8367 -76.0817 183° South 163 188 5,500 1,200 Climbing Boston Center
16:00 43.7953 -76.0761 174° South 174 200 6,700 1,080 Climbing Boston Center
16:01 43.7475 -76.0703 175° South 174 200 7,900 1,200 Climbing Boston Center
16:02 43.6997 -76.0647 175° South 179 206 9,200 1,080 Climbing Boston Center
16:03 43.6436 -76.0583 175° South 179 206 10,100 1,020 Climbing Boston Center
16:04 43.5897 -76.0494 173° South 190 219 11,300 1,140 Climbing Boston Center
16:05 43.5358 -76.0406 173° South 196 226 12,500 1,140 Climbing Boston Center
16:06 43.4797 -76.0372 178° South 196 226 13,700 900 Climbing Boston Center
16:07 43.4153 -76.0275 174° South 201 231 14,400 300 Climbing Boston Center
16:08 43.3489 -76.0181 174° South 217 250 14,400  Level Boston Center
16:09 43.2825 -76.0111 176° South 238 274 14,400  Level Boston Center
16:10 43.2139 -75.9986 172° South 244 281 14,400  Level Boston Center
16:11 43.1433 -75.9889 174° South 250 288 14,400  Level Boston Center
16:12 43.0769 -75.9794 174° South 250 288 14,400  Level Boston Center
16:13 43.0083 -75.9725 176° South 250 288 14,400  Level Boston Center
16:14 42.9378 -75.9628 174° South 250 288 14,400  Level Boston Center
16:16 42.8056 -75.9411 173° South 255 293 14,400  Level New York Center
16:17 42.7394 -75.9331 175° South 255 293 14,400  Level New York Center
16:18 42.6669 -75.9244 175° South 255 293 14,400  Level New York Center
16:19 42.5989 -75.9136 173° South 250 288 14,400  Level New York Center
16:20 42.5261 -75.9078 177° South 250 288 14,500  Climbing New York Center
16:21 42.4581 -75.8967 173° South 250 288 14,500  Level New York Center
16:22 42.3897 -75.8886 175° South 255 293 14,500  Level New York Center
16:23 42.3236 -75.8778 173° South 250 288 14,500  Level New York Center
16:24 42.2531 -75.8694 175° South 250 288 14,500  Level New York Center
16:25 42.1850 -75.8586 173° South 250 288 14,500  Level New York Center
16:26 42.1164 -75.8533 177° South 250 288 14,500  Level New York Center
16:27 42.0461 -75.8453 175° South 250 288 14,500  Level New York Center
16:28 41.9717 -75.8339 174° South 250 288 14,500  Level New York Center
16:29 41.9033 -75.8258 175° South 250 288 14,500  Level New York Center
16:30 41.8350 -75.8153 173° South 250 288 14,500  Level New York Center
16:31 41.7708 -75.8075 175° South 256 295 14,500  Level New York Center
16:32 41.7003 -75.7967 173° South 249 287 14,500  Level New York Center
16:33 41.6258 -75.7883 175° South 254 292 14,500  Level New York Center
16:34 41.5556 -75.7775 173° South 254 292 14,500  Level New York Center
16:35 41.4933 -75.7700 175° South 254 292 14,500  Level New York Center
16:36 41.4250 -75.7594 173° South 254 292 14,500  Level New York Center
16:37 41.3544 -75.7514 175° South 254 292 14,500  Level New York Center
16:38 41.2842 -75.7406 173° South 254 292 14,500  Level New York Center
16:39 41.2136 -75.7356 177° South 254 292 14,500  Level New York Center
16:40 41.1472 -75.7250 173° South 254 292 14,500  Level New York Center
16:41 41.0706 -75.7139 174° South 249 287 14,500  Level New York Center
16:42 41.0003 -75.7061 175° South 249 287 14,500  Level New York Center
16:43 40.9358 -75.6986 175° South 257 296 14,500 -240 Level New York Center
16:44 40.8653 -75.6908 175° South 257 296 14,100 -780 Descending New York Center
16:45 40.7886 -75.6825 175° South 257 296 13,000 -1,080 Descending New York Center
16:46 40.7183 -75.6722 174° South 257 296 12,000 -1,020 Descending New York Center
16:47 40.6497 -75.6644 175° South 252 290 11,000 -1,020 Descending New York Center
16:48 40.5897 -75.6547 173° South 252 290 10,000 -1,020 Descending New York Center
16:49 40.5150 -75.6467 175° South 252 290 9,000 -1,020 Descending New York Center
16:50 40.4467 -75.6392 175° South 252 290 8,000 -1,020 Descending New York Center
16:51 40.3803 -75.6317 175° South 246 283 7,000 -1,020 Descending New York Center
16:52 40.3222 -75.6222 173° South 246 283 6,000 -1,080 Descending New York Center
16:53 40.2497 -75.6144 175° South 246 283 4,900 -1,080 Descending New York Center
16:54 40.1872 -75.6100 177° South 236 272 3,900 -900 Descending New York Center
16:55 40.1289 -75.6086 179° South 217 250 3,100 -600 Descending New York Center
16:56 40.0761 -75.6267 195° South 207 238 2,800 -600 Descending New York Center
16:57 40.0233 -75.6392 190° South 207 238 1,900 -780 Descending New York Center
16:58 39.9864 -75.6314 171° South 171 197 1,300 -480 Descending New York Center
16:59 39.9664 -75.6056 135° Southeast 116 133 1,000 2,100 Descending New York Center
17:00 39.9425 -75.5822 143° Southeast 116 133 5,500 2,220 Climbing New York Center
17:01 39.9161 -75.5614 149° Southeast 116 133 5,500  Level New York Center
17:02 39.8919 -75.5381 143° Southeast 116 133 5,500  Level New York Center
17:03 39.8819 -75.5294 147° Southeast 116 133 5,500  Level New York Center
17:06 39.9861 -75.5485 348° North  Level FlightAware Approximate
17:13 39.9833 -75.5667 166° South  Level FlightAware Approximate
17:14 39.9901 -75.5819 166° South  Level Estimated